Terminal Aerodrome Forecast
Issued by NWS Sioux Falls, SD

Home | Current Version | Previous Version | Text Only | Print | Product List | Glossary On
Versions: 1 2 3 4 5 6 7 8 9 10 11 12 13 14 15 16
000
FTUS43 KFSD 251345 AAA
TAFFSD
TAF AMD
KFSD 251345Z 2514/2612 17009KT P6SM SCT030 BKN120
     FM251500 16009KT P6SM BKN040
     FM251900 19009KT P6SM BKN040
     FM252100 22008KT P6SM BKN040
     FM260100 19007KT P6SM SCT250
     FM260900 25004KT P6SM SCT200=

USA.gov is the U.S. government's official web portal to all federal, state and local government web resources and services.